Time;durP1;ratioP1;P1;durP2;ratioP2;P2;SDS_P1;SDS_P2;PMS_P1;PMS_P2;Temp;Humidity;BMP_temperature;BMP_pressure;BME280_temperature;BME280_humidity;BME280_pressure;Samples;Min_cycle;Max_cycle;Signal;HPM_P1;HPM_P2
2022/05/16 00:01:05;;;;;;;;;;;;;;;17.02;60.13;99947.22;4347185;33;20009;-85
2022/05/16 00:03:31;;;;;;;;;;;;;;;16.82;60.12;99948.34;4346980;33;20003;-85
2022/05/16 00:05:56;;;;;;;;;;;;;;;16.59;60.11;99946.94;4347145;33;20490;-85
2022/05/16 00:08:21;;;;;;;;;;;;;;;16.61;60.10;99952.94;4347144;33;20007;-86
2022/05/16 00:10:46;;;;;;;;;;;;;;;16.65;60.11;99953.63;4346899;33;28007;-86
2022/05/16 00:13:12;;;;;;;;;;;;;;;16.52;60.10;99953.41;4347419;33;26388;-86
2022/05/16 00:15:37;;;;;;;;;;;;;;;16.66;60.12;99953.59;4349698;33;20011;-86
2022/05/16 00:18:02;;;;;;;;;;;;;;;16.55;60.11;99950.63;4354130;33;19995;-87
2022/05/16 00:20:28;;;;;;;;;;;;;;;16.54;60.10;99956.81;4360397;33;20219;-85
2022/05/16 00:22:53;;;;;;;;;;;;;;;16.56;60.11;99945.31;4347925;33;19976;-86
2022/05/16 00:25:18;;;;;;;;;;;;;;;16.58;60.11;99950.50;4347586;33;28061;-86
2022/05/16 00:27:43;;;;;;;;;;;;;;;16.34;60.10;99949.16;4346553;33;19999;-86
2022/05/16 00:30:10;;;;;;;;;;;;;;;16.61;60.10;99945.06;4322189;33;20015;-84
2022/05/16 00:32:35;;;;;;;;;;;;;;;16.55;60.11;99948.00;4348139;33;19986;-85
2022/05/16 00:35:01;;;;;;;;;;;;;;;16.37;60.10;99947.22;4334505;33;19987;-85
2022/05/16 00:37:26;;;;;;;;;;;;;;;16.22;60.08;99951.47;4334439;33;20006;-84
2022/05/16 00:39:51;;;;;;;;;;;;;;;16.44;60.10;99953.00;4334255;33;20034;-85
2022/05/16 00:42:18;;;;;;;;;;;;;;;16.31;60.09;99946.66;4334055;33;20021;-85
2022/05/16 00:44:43;;;;;;;;;;;;;;;16.39;60.10;99955.03;4346978;33;19975;-85
2022/05/16 00:47:08;;;;;;;;;;;;;;;16.55;60.11;99948.84;4334331;33;19987;-85
2022/05/16 00:49:35;;;;;;;;;;;;;;;16.51;60.10;99957.81;4347928;33;20018;-85
2022/05/16 00:52:01;;;;;;;;;;;;;;;16.57;60.11;99959.31;4334299;33;19998;-85
2022/05/16 00:54:27;;;;;;;;;;;;;;;16.65;60.11;99957.09;4322064;33;19983;-86
2022/05/16 00:56:54;;;;;;;;;;;;;;;16.61;60.10;99952.94;4334190;33;20083;-85
2022/05/16 00:59:19;;;;;;;;;;;;;;;16.68;60.12;99949.09;4334396;33;20025;-85
2022/05/16 01:07:13;;;;;;;;;;;;;;;16.87;60.12;99956.84;4348246;33;20406;-85
2022/05/16 01:09:38;;;;;;;;;;;;;;;16.73;60.12;99959.34;4333997;33;19987;-85
2022/05/16 01:12:04;;;;;;;;;;;;;;;16.53;60.10;99963.00;4346957;33;29819;-85
2022/05/16 01:14:48;;;;;;;;;;;;;;;16.28;60.08;99959.03;4347709;33;20026;-85
2022/05/16 01:17:14;;;;;;;;;;;;;;;16.43;60.10;99967.91;4333798;33;20408;-85
2022/05/16 01:19:39;;;;;;;;;;;;;;;16.45;60.10;99973.09;4347598;33;19998;-85
2022/05/16 01:22:06;;;;;;;;;;;;;;;16.25;60.10;99963.59;4347264;33;19972;-85
2022/05/16 01:24:31;;;;;;;;;;;;;;;16.38;60.09;99976.97;4333994;33;20305;-85
2022/05/16 01:26:56;;;;;;;;;;;;;;;16.45;60.10;99973.94;4333012;33;34612;-85
2022/05/16 01:29:21;;;;;;;;;;;;;;;16.59;60.11;99970.59;4321347;33;20007;-85
2022/05/16 01:31:47;;;;;;;;;;;;;;;16.68;60.12;99967.47;4333850;33;20677;-85
2022/05/16 01:34:12;;;;;;;;;;;;;;;16.45;60.09;99967.81;4346336;33;21497;-84
2022/05/16 01:36:37;;;;;;;;;;;;;;;16.45;60.10;99971.31;4347091;33;19992;-84
2022/05/16 01:39:03;;;;;;;;;;;;;;;16.35;60.09;99977.13;4333800;33;20035;-84
2022/05/16 01:41:28;;;;;;;;;;;;;;;16.27;60.09;99978.34;4320929;33;28028;-84
2022/05/16 01:43:55;;;;;;;;;;;;;;;16.24;60.09;99969.78;4333742;33;19999;-85
2022/05/16 01:46:41;;;;;;;;;;;;;;;16.31;60.08;99980.81;4333879;33;20001;-86
2022/05/16 01:49:07;;;;;;;;;;;;;;;16.35;60.09;99979.75;4346994;33;20265;-86
2022/05/16 01:51:32;;;;;;;;;;;;;;;16.39;60.10;99982.12;4334022;33;19976;-87
2022/05/16 01:53:57;;;;;;;;;;;;;;;16.53;60.10;99984.88;4347484;33;19987;-87
2022/05/16 01:56:22;;;;;;;;;;;;;;;16.52;60.10;99977.06;4336164;33;19988;-87
2022/05/16 01:58:48;;;;;;;;;;;;;;;16.61;60.10;99976.59;4336134;33;20004;-87
2022/05/16 02:01:14;;;;;;;;;;;;;;;16.66;60.11;99979.88;4349894;33;19991;-87
2022/05/16 02:03:40;;;;;;;;;;;;;;;16.72;60.11;99982.16;4336980;33;19986;-87
2022/05/16 02:06:05;;;;;;;;;;;;;;;16.73;60.11;99985.63;4337515;33;19995;-87
2022/05/16 02:08:30;;;;;;;;;;;;;;;16.76;60.12;99988.94;4337718;33;19988;-88
2022/05/16 02:10:55;;;;;;;;;;;;;;;16.68;60.10;99995.56;4346886;33;20022;-88
2022/05/16 02:13:21;;;;;;;;;;;;;;;16.65;60.11;99988.66;4343147;33;22943;-85
2022/05/16 02:15:46;;;;;;;;;;;;;;;16.64;60.11;99986.09;4348916;33;27448;-86
2022/05/16 02:18:11;;;;;;;;;;;;;;;16.56;60.10;99989.12;4335587;33;20273;-85
2022/05/16 02:20:37;;;;;;;;;;;;;;;16.46;60.11;99978.25;4335428;33;20054;-85
2022/05/16 02:25:49;;;;;;;;;;;;;;;16.59;60.11;99988.97;4337305;33;19994;-86
2022/05/16 02:28:16;;;;;;;;;;;;;;;16.59;60.11;99981.09;4348766;33;20015;-86
2022/05/16 02:30:41;;;;;;;;;;;;;;;16.65;60.10;99990.44;4337946;33;19975;-86
2022/05/16 02:33:07;;;;;;;;;;;;;;;16.63;60.11;99989.66;4336476;33;20660;-86
2022/05/16 02:35:32;;;;;;;;;;;;;;;16.67;60.10;99992.06;4335196;33;20026;-86
2022/05/16 02:37:58;;;;;;;;;;;;;;;16.91;60.12;99991.69;4348838;33;19998;-87
2022/05/16 02:40:27;;;;;;;;;;;;;;;16.70;60.11;99991.06;4323141;33;19975;-86
2022/05/16 02:42:52;;;;;;;;;;;;;;;16.45;60.09;99991.47;4335206;33;20258;-86
2022/05/16 02:45:18;;;;;;;;;;;;;;;16.32;60.09;99993.87;4335214;33;20010;-86
2022/05/16 02:47:43;;;;;;;;;;;;;;;16.31;60.10;99992.19;4335075;33;19991;-87
2022/05/16 02:50:08;;;;;;;;;;;;;;;16.30;60.08;99987.00;4334770;33;22040;-87
2022/05/16 02:52:33;;;;;;;;;;;;;;;16.14;60.08;99998.31;4335169;33;19988;-86
2022/05/16 02:55:01;;;;;;;;;;;;;;;16.24;60.09;99993.44;4348419;33;20399;-86
2022/05/16 02:57:30;;;;;;;;;;;;;;;16.21;60.08;99989.19;4323159;33;20387;-86
2022/05/16 02:59:55;;;;;;;;;;;;;;;16.19;60.08;99987.56;4335168;33;20055;-86
2022/05/16 03:02:20;;;;;;;;;;;;;;;16.14;60.08;99985.19;4335069;33;20053;-86
2022/05/16 03:04:46;;;;;;;;;;;;;;;15.99;60.07;99985.94;4335054;33;20052;-86
2022/05/16 03:07:11;;;;;;;;;;;;;;;16.05;60.07;99988.25;4334310;33;20010;-85
2022/05/16 03:09:36;;;;;;;;;;;;;;;16.15;60.07;99989.50;4334939;33;19983;-86
2022/05/16 03:12:01;;;;;;;;;;;;;;;15.95;60.07;99992.28;4334824;33;21516;-84
2022/05/16 03:14:27;;;;;;;;;;;;;;;16.06;60.07;99991.72;4348731;33;20023;-85
2022/05/16 03:16:52;;;;;;;;;;;;;;;16.17;60.09;99985.03;4348597;33;20002;-85
2022/05/16 03:19:17;;;;;;;;;;;;;;;16.16;60.08;99983.31;4348741;33;20074;-85
2022/05/16 03:21:42;;;;;;;;;;;;;;;16.40;60.10;99985.63;4335142;33;19990;-85
2022/05/16 03:24:08;;;;;;;;;;;;;;;16.42;60.09;99983.75;4334882;33;20317;-86
2022/05/16 03:26:33;;;;;;;;;;;;;;;16.30;60.08;99982.59;4348582;33;20009;-86
2022/05/16 03:28:59;;;;;;;;;;;;;;;16.18;60.08;99985.87;4334976;33;19971;-86
2022/05/16 03:31:24;;;;;;;;;;;;;;;16.14;60.08;99989.59;4322819;33;19991;-86
2022/05/16 03:33:49;;;;;;;;;;;;;;;16.34;60.10;99978.06;4334764;33;20265;-87
2022/05/16 03:36:14;;;;;;;;;;;;;;;16.38;60.10;99983.06;4334376;33;25819;-85
2022/05/16 03:41:24;;;;;;;;;;;;;;;16.34;60.09;99983.31;4337128;33;19994;-86
2022/05/16 03:43:50;;;;;;;;;;;;;;;16.39;60.10;99986.53;4334960;33;20043;-86
2022/05/16 03:46:15;;;;;;;;;;;;;;;16.37;60.09;99984.00;4323107;33;20091;-86
2022/05/16 03:48:41;;;;;;;;;;;;;;;16.53;60.10;99977.00;4348670;33;20035;-85
2022/05/16 03:51:06;;;;;;;;;;;;;;;16.67;60.10;99984.19;4334814;33;19999;-86
2022/05/16 03:53:31;;;;;;;;;;;;;;;16.68;60.10;99985.03;4335435;33;20013;-86
2022/05/16 03:55:57;;;;;;;;;;;;;;;16.75;60.11;99982.00;4349747;33;29112;-86
2022/05/16 03:58:22;;;;;;;;;;;;;;;16.81;60.11;99989.56;4337768;33;19975;-86
2022/05/16 04:00:47;;;;;;;;;;;;;;;16.98;60.12;99987.78;4338056;33;20007;-85
2022/05/16 04:03:13;;;;;;;;;;;;;;;17.11;60.13;99986.19;4359698;33;19995;-83
2022/05/16 04:05:38;;;;;;;;;;;;;;;17.15;60.14;99983.31;4338915;33;19996;-84
2022/05/16 04:08:04;;;;;;;;;;;;;;;17.19;60.13;99989.25;4334892;33;29588;-85
2022/05/16 04:10:29;;;;;;;;;;;;;;;17.38;60.15;99997.81;4334450;33;19990;-85
2022/05/16 04:12:54;;;;;;;;;;;;;;;17.60;60.16;99993.97;4322380;33;20373;-86
2022/05/16 04:15:21;;;;;;;;;;;;;;;17.73;60.17;100000.25;4334591;33;19999;-86
2022/05/16 04:17:46;;;;;;;;;;;;;;;17.94;60.18;100003.44;4334605;33;19992;-86
2022/05/16 04:20:11;;;;;;;;;;;;;;;17.97;60.18;100006.72;4321825;33;20005;-85
2022/05/16 04:22:36;;;;;;;;;;;;;;;18.05;60.18;99999.25;4334576;33;20017;-86
2022/05/16 04:25:02;;;;;;;;;;;;;;;18.18;60.19;99999.34;4322332;33;20023;-85
2022/05/16 04:27:27;;;;;;;;;;;;;;;18.33;60.19;100009.00;4334636;33;20043;-85
2022/05/16 04:29:52;;;;;;;;;;;;;;;18.46;60.20;100009.13;4334706;33;19990;-85
2022/05/16 04:32:18;;;;;;;;;;;;;;;18.60;60.21;99997.72;4347581;33;20002;-85
2022/05/16 04:34:43;;;;;;;;;;;;;;;18.75;60.22;99993.34;4334595;33;20149;-85
2022/05/16 04:37:08;;;;;;;;;;;;;;;18.91;60.23;99991.41;4334129;33;20017;-86
2022/05/16 04:39:33;;;;;;;;;;;;;;;19.07;60.23;99986.03;4347608;33;20665;-86
2022/05/16 04:44:42;;;;;;;;;;;;;;;19.14;60.23;99997.88;4348065;33;20413;-85
2022/05/16 04:47:08;;;;;;;;;;;;;;;19.24;60.25;99999.88;4334417;33;23361;-86
2022/05/16 04:49:33;;;;;;;;;;;;;;;19.30;60.24;100001.25;4334348;33;20018;-86
2022/05/16 04:51:58;;;;;;;;;;;;;;;19.48;60.27;99996.59;4347830;33;20002;-86
2022/05/16 04:54:24;;;;;;;;;;;;;;;19.59;60.26;99994.97;4346590;33;20329;-86
2022/05/16 04:56:51;;;;;;;;;;;;;;;19.64;60.27;99997.34;4334563;33;20042;-86
2022/05/16 04:59:16;;;;;;;;;;;;;;;19.77;60.28;99997.34;4334360;33;20052;-85
2022/05/16 05:01:41;;;;;;;;;;;;;;;19.90;60.28;100000.91;4334402;33;19992;-86
2022/05/16 05:04:07;;;;;;;;;;;;;;;20.09;60.29;100001.31;4347012;33;29159;-86
2022/05/16 05:06:33;;;;;;;;;;;;;;;20.11;60.29;100006.50;4347731;33;19990;-85
2022/05/16 05:08:58;;;;;;;;;;;;;;;20.27;60.30;100001.03;4334269;33;20315;-85
2022/05/16 05:16:51;;;;;;;;;;;;;;;20.53;60.31;99998.34;4336068;33;20036;-86
2022/05/16 05:19:17;;;;;;;;;;;;;;;20.66;60.32;99998.34;4334022;33;19987;-86
2022/05/16 05:21:42;;;;;;;;;;;;;;;20.82;60.33;99998.12;4347650;33;20035;-86
2022/05/16 05:24:07;;;;;;;;;;;;;;;20.98;60.33;100001.34;4335188;33;20057;-86
2022/05/16 05:26:32;;;;;;;;;;;;;;;21.15;60.34;99993.06;4334611;33;20356;-86
2022/05/16 05:28:58;;;;;;;;;;;;;;;21.35;60.35;100002.25;4346975;33;34673;-85
2022/05/16 05:31:25;;;;;;;;;;;;;;;21.51;60.36;99995.81;4335799;33;20015;-85
2022/05/16 05:33:50;;;;;;;;;;;;;;;21.59;60.36;99999.63;4336279;33;20421;-85
2022/05/16 05:36:16;;;;;;;;;;;;;;;21.61;60.36;99997.69;4335925;33;19975;-85
2022/05/16 05:38:41;;;;;;;;;;;;;;;21.69;60.37;100005.91;4335969;33;19995;-86
2022/05/16 05:41:07;;;;;;;;;;;;;;;21.66;60.37;100000.84;4349648;33;19975;-86
2022/05/16 05:43:32;;;;;;;;;;;;;;;21.68;60.37;100001.56;4335900;33;20561;-85
2022/05/16 05:45:57;;;;;;;;;;;;;;;21.81;60.38;100003.34;4338310;33;20019;-86
2022/05/16 05:48:22;;;;;;;;;;;;;;;21.86;60.38;100004.66;4352808;33;20026;-84
2022/05/16 05:50:48;;;;;;;;;;;;;;;21.99;60.38;100007.22;4338008;33;20019;-87
2022/05/16 05:53:13;;;;;;;;;;;;;;;22.05;60.39;100001.53;4351314;33;20329;-85
2022/05/16 05:55:40;;;;;;;;;;;;;;;22.24;60.39;100011.56;4357618;33;20087;-85
2022/05/16 05:58:05;;;;;;;;;;;;;;;22.33;60.41;100010.88;4350744;33;19968;-85
2022/05/16 06:00:30;;;;;;;;;;;;;;;22.39;60.41;100009.56;4349470;33;19998;-85
2022/05/16 06:02:56;;;;;;;;;;;;;;;22.67;60.43;100004.62;4335807;33;19983;-86
2022/05/16 06:05:21;;;;;;;;;;;;;;;22.75;60.43;100006.72;4323392;33;20348;-86
2022/05/16 06:07:47;;;;;;;;;;;;;;;22.77;60.43;100006.59;4335904;33;20018;-86
2022/05/16 06:10:12;;;;;;;;;;;;;;;22.84;60.43;100011.31;4335208;33;20100;-85
2022/05/16 06:12:39;;;;;;;;;;;;;;;23.09;60.44;100006.72;4335276;33;22236;-85
2022/05/16 06:15:05;;;;;;;;;;;;;;;23.37;60.47;100008.84;4347345;33;19972;-85
2022/05/16 06:17:30;;;;;;;;;;;;;;;23.32;60.46;100012.84;4335272;33;19979;-86
2022/05/16 06:19:57;;;;;;;;;;;;;;;23.41;60.46;100009.44;4323392;33;19991;-86
2022/05/16 06:22:22;;;;;;;;;;;;;;;23.41;60.46;100007.59;4349262;33;19983;-85
2022/05/16 06:27:32;;;;;;;;;;;;;;;23.60;60.48;100007.00;4349238;33;20113;-86
2022/05/16 06:29:57;;;;;;;;;;;;;;;23.74;60.49;100004.06;4349480;33;20365;-87
2022/05/16 06:32:22;;;;;;;;;;;;;;;23.90;60.49;100003.63;4323837;33;20357;-85
2022/05/16 06:34:48;;;;;;;;;;;;;;;24.09;60.50;99998.44;4336062;33;20037;-85
2022/05/16 06:37:14;;;;;;;;;;;;;;;24.11;60.51;100004.47;4335678;33;20384;-85
2022/05/16 06:39:39;;;;;;;;;;;;;;;24.18;60.50;100007.47;4349072;33;19998;-86
2022/05/16 06:42:04;;;;;;;;;;;;;;;24.17;60.50;100000.47;4349202;33;19972;-85
2022/05/16 06:44:30;;;;;;;;;;;;;;;24.27;60.51;100000.53;4323831;33;20038;-85
2022/05/16 06:46:55;;;;;;;;;;;;;;;24.36;60.52;99997.94;4349497;33;19975;-84
2022/05/16 06:49:21;;;;;;;;;;;;;;;24.56;60.52;99992.75;4350510;33;19990;-85
2022/05/16 06:51:46;;;;;;;;;;;;;;;24.64;60.53;99995.59;4336182;33;20268;-85
2022/05/16 06:54:12;;;;;;;;;;;;;;;24.71;60.53;100002.91;4324830;33;19996;-85
2022/05/16 06:56:37;;;;;;;;;;;;;;;24.83;60.55;100001.00;4337107;33;20019;-86
2022/05/16 06:59:02;;;;;;;;;;;;;;;24.95;60.55;100007.06;4337305;33;20047;-85
2022/05/16 07:01:27;;;;;;;;;;;;;;;24.89;60.54;100000.47;4336941;33;20018;-85
2022/05/16 07:03:53;;;;;;;;;;;;;;;24.83;60.54;100011.62;4350037;33;19994;-86
2022/05/16 07:06:18;;;;;;;;;;;;;;;24.93;60.55;100015.19;4337272;33;20356;-86
2022/05/16 07:08:43;;;;;;;;;;;;;;;24.84;60.55;100015.12;4349675;33;20032;-85
2022/05/16 07:11:09;;;;;;;;;;;;;;;24.82;60.54;100014.44;4349341;33;20211;-84
2022/05/16 07:13:34;;;;;;;;;;;;;;;24.78;60.54;100019.19;4336485;33;19999;-85
2022/05/16 07:16:00;;;;;;;;;;;;;;;24.62;60.53;100010.88;4351388;33;20030;-85
2022/05/16 07:18:25;;;;;;;;;;;;;;;24.71;60.54;100010.91;4350045;33;19987;-85
2022/05/16 07:20:50;;;;;;;;;;;;;;;24.85;60.55;100011.53;4337399;33;20003;-86
2022/05/16 07:23:16;;;;;;;;;;;;;;;24.99;60.55;100006.69;4337440;33;19994;-85
2022/05/16 07:28:25;;;;;;;;;;;;;;;25.43;60.57;100006.41;4338646;33;20011;-85
2022/05/16 07:30:50;;;;;;;;;;;;;;;25.67;60.58;100020.22;4349066;33;20313;-85
2022/05/16 07:33:16;;;;;;;;;;;;;;;25.76;60.58;100016.69;4348848;33;19983;-85
2022/05/16 07:35:41;;;;;;;;;;;;;;;25.90;60.60;100008.28;4337203;33;20007;-86
2022/05/16 07:38:06;;;;;;;;;;;;;;;25.97;60.60;100012.06;4336451;33;20356;-85
2022/05/16 07:40:32;;;;;;;;;;;;;;;26.19;60.62;100012.75;4336630;33;19991;-85
2022/05/16 07:42:57;;;;;;;;;;;;;;;26.40;60.62;100000.09;4349882;33;20336;-86
2022/05/16 07:45:23;;;;;;;;;;;;;;;26.30;60.62;100010.78;4335580;33;20018;-85
2022/05/16 07:47:48;;;;;;;;;;;;;;;26.40;60.63;100013.47;4336273;33;20027;-85
2022/05/16 07:50:13;;;;;;;;;;;;;;;26.27;60.62;100012.91;4349386;33;19987;-85
2022/05/16 07:52:40;;;;;;;;;;;;;;;26.43;60.62;100013.16;4334194;33;20440;-85
2022/05/16 07:55:06;;;;;;;;;;;;;;;26.50;60.63;100019.63;4323214;33;20037;-83
2022/05/16 07:57:31;;;;;;;;;;;;;;;26.64;60.64;100012.12;4348481;33;19983;-83
2022/05/16 07:59:57;;;;;;;;;;;;;;;26.76;60.64;100010.97;4334994;33;19999;-83
2022/05/16 08:02:22;;;;;;;;;;;;;;;26.96;60.66;100006.37;4348203;33;19991;-83
2022/05/16 08:04:47;;;;;;;;;;;;;;;27.17;60.67;100005.16;4334781;33;20369;-83
2022/05/16 08:07:13;;;;;;;;;;;;;;;27.12;60.66;100007.44;4348055;33;19992;-82
2022/05/16 08:12:26;;;;;;;;;;;;;;;26.97;60.66;100013.41;4348321;33;20407;-82
2022/05/16 08:14:51;;;;;;;;;;;;;;;26.98;60.66;100010.59;4348278;33;20031;-83
2022/05/16 08:17:16;;;;;;;;;;;;;;;26.89;60.65;100008.81;4334970;33;19999;-82
2022/05/16 08:19:42;;;;;;;;;;;;;;;27.08;60.66;100011.41;4348333;33;20001;-83
2022/05/16 08:22:07;;;;;;;;;;;;;;;27.28;60.68;100009.47;4334489;33;20370;-83
2022/05/16 08:24:32;;;;;;;;;;;;;;;27.26;60.68;100006.13;4334547;33;19986;-83
2022/05/16 08:26:57;;;;;;;;;;;;;;;27.32;60.67;100010.03;4347939;33;20337;-82
2022/05/16 08:29:23;;;;;;;;;;;;;;;27.46;60.68;100010.37;4334559;33;19995;-83
2022/05/16 08:31:48;;;;;;;;;;;;;;;27.51;60.69;100007.22;4334621;33;19987;-83
2022/05/16 08:34:13;;;;;;;;;;;;;;;27.96;60.72;100007.19;4334205;33;19995;-83
2022/05/16 08:42:08;;;;;;;;;;;;;;;28.45;60.73;100006.75;4348567;33;20005;-84
2022/05/16 08:44:36;;;;;;;;;;;;;;;28.46;60.73;100006.59;4348145;33;20022;-82
2022/05/16 08:47:02;;;;;;;;;;;;;;;28.67;60.74;100006.22;4334599;33;19987;-83
2022/05/16 08:49:34;;;;;;;;;;;;;;;28.88;60.76;99998.66;4348847;33;19995;-83
2022/05/16 08:52:08;;;;;;;;;;;;;;;29.14;60.77;100000.44;4348991;33;19976;-83
2022/05/16 08:54:35;;;;;;;;;;;;;;;29.45;60.78;99988.16;4334716;33;19983;-82
2022/05/16 08:57:00;;;;;;;;;;;;;;;29.86;60.80;99996.25;4334816;33;20014;-83
2022/05/16 08:59:25;;;;;;;;;;;;;;;29.83;60.80;99996.59;4322992;33;20378;-84
2022/05/16 09:01:55;;;;;;;;;;;;;;;30.14;60.82;99994.94;4335234;33;26306;-84
2022/05/16 09:04:25;;;;;;;;;;;;;;;30.35;60.83;99993.56;4321511;33;19974;-83
2022/05/16 09:06:50;;;;;;;;;;;;;;;30.60;60.84;100000.56;4334192;33;20454;-83
2022/05/16 09:09:16;;;;;;;;;;;;;;;30.80;60.85;100001.03;4347715;33;19984;-81
2022/05/16 09:12:00;;;;;;;;;;;;;;;30.65;60.84;100000.91;4347729;33;20054;-81
2022/05/16 09:14:32;;;;;;;;;;;;;;;30.33;60.82;100001.78;4347909;33;20317;-81
2022/05/16 09:17:00;;;;;;;;;;;;;;;30.41;60.83;99995.56;4334382;33;19996;-81
2022/05/16 09:19:25;;;;;;;;;;;;;;;30.41;60.83;99991.03;4334395;33;20042;-81
2022/05/16 09:21:50;;;;;;;;;;;;;;;30.24;60.82;99992.06;4347635;33;20031;-81
2022/05/16 09:24:19;;;;;;;;;;;;;;;30.38;60.83;99983.31;4347411;33;19971;-81
2022/05/16 09:26:51;;;;;;;;;;;;;;;30.46;60.83;99988.66;4333870;33;20015;-81
2022/05/16 09:29:26;;;;;;;;;;;;;;;30.81;60.85;99981.22;4333777;33;19992;-80
2022/05/16 09:31:53;;;;;;;;;;;;;;;30.81;60.86;99968.63;4333864;33;20054;-81
2022/05/16 09:34:18;;;;;;;;;;;;;;;30.53;60.84;99978.94;4333763;33;20030;-81
2022/05/16 09:36:45;;;;;;;;;;;;;;;30.41;60.83;99972.22;4333392;33;20027;-81
2022/05/16 09:39:11;;;;;;;;;;;;;;;30.52;60.84;99968.31;4347382;33;20055;-81
2022/05/16 09:41:42;;;;;;;;;;;;;;;30.49;60.83;99968.69;4347509;33;19987;-81
2022/05/16 09:44:14;;;;;;;;;;;;;;;30.63;60.84;99965.31;4333890;33;19970;-81
2022/05/16 09:46:40;;;;;;;;;;;;;;;30.50;60.83;99960.44;4347287;33;19992;-81
2022/05/16 09:49:14;;;;;;;;;;;;;;;30.22;60.83;99972.59;4333605;33;20398;-81
2022/05/16 09:51:44;;;;;;;;;;;;;;;30.11;60.82;99964.91;4346947;33;19975;-81
2022/05/16 09:54:10;;;;;;;;;;;;;;;30.20;60.83;99956.66;4333390;33;20321;-81
2022/05/16 09:56:35;;;;;;;;;;;;;;;30.32;60.83;99965.22;4333248;33;19995;-81
2022/05/16 09:59:01;;;;;;;;;;;;;;;30.48;60.84;99956.25;4333375;33;19987;-81
2022/05/16 10:01:31;;;;;;;;;;;;;;;30.67;60.85;99949.69;4332900;33;22127;-81
2022/05/16 10:03:58;;;;;;;;;;;;;;;30.52;60.84;99954.91;4333269;33;20038;-81
2022/05/16 10:06:30;;;;;;;;;;;;;;;30.41;60.83;99949.91;4320924;33;20321;-81
2022/05/16 10:08:55;;;;;;;;;;;;;;;30.38;60.83;99939.50;4347024;33;19988;-81
2022/05/16 10:11:22;;;;;;;;;;;;;;;30.46;60.83;99939.47;4333127;33;20017;-81
2022/05/16 10:13:47;;;;;;;;;;;;;;;30.27;60.83;99946.06;4333332;33;19979;-81
2022/05/16 10:16:12;;;;;;;;;;;;;;;30.46;60.84;99942.16;4322110;33;20314;-81
2022/05/16 10:18:48;;;;;;;;;;;;;;;30.58;60.84;99938.09;4334865;33;26624;-81
2022/05/16 10:21:19;;;;;;;;;;;;;;;30.57;60.84;99932.91;4335526;33;19988;-81
2022/05/16 10:23:44;;;;;;;;;;;;;;;30.85;60.86;99940.37;4335417;33;19979;-81
2022/05/16 10:26:10;;;;;;;;;;;;;;;31.02;60.86;99933.06;4335302;33;20366;-81
2022/05/16 10:28:42;;;;;;;;;;;;;;;31.28;60.87;99932.78;4335513;33;20003;-81
2022/05/16 10:33:55;;;;;;;;;;;;;;;31.44;60.88;99935.34;4337497;33;20491;-81
2022/05/16 10:36:22;;;;;;;;;;;;;;;31.53;60.88;99933.44;4335192;33;19992;-82
2022/05/16 10:38:47;;;;;;;;;;;;;;;31.73;60.90;99929.28;4348729;33;19987;-81
2022/05/16 10:41:22;;;;;;;;;;;;;;;31.74;60.90;99938.19;4348772;33;20038;-81
2022/05/16 10:43:56;;;;;;;;;;;;;;;31.68;60.90;99936.16;4335165;33;20039;-82
2022/05/16 10:46:32;;;;;;;;;;;;;;;31.77;60.90;99929.75;4335187;33;20009;-82
2022/05/16 10:49:02;;;;;;;;;;;;;;;31.67;60.89;99932.66;4335156;33;19995;-81
2022/05/16 10:51:39;;;;;;;;;;;;;;;31.84;60.90;99924.47;4335197;33;19983;-82
2022/05/16 10:54:05;;;;;;;;;;;;;;;31.73;60.90;99925.75;4335150;33;20010;-82
2022/05/16 10:56:47;;;;;;;;;;;;;;;31.93;60.90;99915.28;4348633;33;20321;-81
2022/05/16 10:59:12;;;;;;;;;;;;;;;32.09;60.91;99912.44;4348684;33;19992;-82
2022/05/16 11:01:46;;;;;;;;;;;;;;;32.14;60.92;99912.72;4348690;33;20031;-82
2022/05/16 11:04:30;;;;;;;;;;;;;;;32.05;60.91;99914.69;4335011;33;19979;-82
2022/05/16 11:06:55;;;;;;;;;;;;;;;32.28;60.93;99906.56;4348791;33;20007;-82
2022/05/16 11:09:23;;;;;;;;;;;;;;;32.19;60.93;99912.19;4323748;33;800688;-81
2022/05/16 11:11:51;;;;;;;;;;;;;;;32.36;60.93;99900.22;4348677;33;20029;-81
2022/05/16 11:14:21;;;;;;;;;;;;;;;32.68;60.95;99907.09;4335010;33;20030;-82
2022/05/16 11:16:50;;;;;;;;;;;;;;;32.86;60.95;99898.62;4335048;33;20007;-82
2022/05/16 11:19:16;;;;;;;;;;;;;;;32.99;60.96;99897.97;4335392;33;20316;-82
2022/05/16 11:21:49;;;;;;;;;;;;;;;32.91;60.96;99897.06;4335022;33;20047;-82
2022/05/16 11:24:24;;;;;;;;;;;;;;;33.08;60.97;99892.25;4334918;33;19997;-82
2022/05/16 11:26:57;;;;;;;;;;;;;;;33.16;60.97;99892.13;4347993;33;19975;-82
2022/05/16 11:29:36;;;;;;;;;;;;;;;33.27;60.97;99896.19;4335001;33;20047;-81
2022/05/16 11:32:04;;;;;;;;;;;;;;;33.15;60.97;99885.06;4348473;33;19986;-82
2022/05/16 11:34:40;;;;;;;;;;;;;;;33.13;60.96;99887.13;4348802;33;19998;-82
2022/05/16 11:37:18;;;;;;;;;;;;;;;33.10;60.97;99882.09;4335017;33;20017;-82
2022/05/16 11:39:46;;;;;;;;;;;;;;;33.10;60.97;99876.69;4335043;33;20057;-82
2022/05/16 11:42:12;;;;;;;;;;;;;;;32.99;60.96;99879.91;4334879;33;20412;-82
2022/05/16 11:44:48;;;;;;;;;;;;;;;32.85;60.96;99872.69;4348278;33;19987;-82
2022/05/16 11:47:14;;;;;;;;;;;;;;;32.83;60.96;99862.09;4348353;33;20076;-82
2022/05/16 11:49:58;;;;;;;;;;;;;;;32.70;60.95;99867.31;4348348;33;20325;-82
2022/05/16 11:52:23;;;;;;;;;;;;;;;32.59;60.95;99863.22;4348171;33;20550;-82
2022/05/16 12:00:40;;;;;;;;;;;;;;;32.89;60.95;99863.22;4336914;33;20046;-82
2022/05/16 12:03:05;;;;;;;;;;;;;;;33.21;60.97;99856.50;4348169;33;19994;-82
2022/05/16 12:05:31;;;;;;;;;;;;;;;33.50;60.99;99850.97;4348181;33;19995;-83
2022/05/16 12:08:14;;;;;;;;;;;;;;;33.75;60.99;99856.78;4334808;33;19996;-83
2022/05/16 12:10:57;;;;;;;;;;;;;;;33.64;60.99;99851.09;4334601;33;20013;-83
2022/05/16 12:13:22;;;;;;;;;;;;;;;33.73;61.00;99844.50;4334708;33;20348;-83
2022/05/16 12:15:48;;;;;;;;;;;;;;;33.81;61.00;99839.78;4348238;33;20018;-83
2022/05/16 12:18:33;;;;;;;;;;;;;;;34.01;61.01;99839.09;4348238;33;19995;-83
2022/05/16 12:20:58;;;;;;;;;;;;;;;33.89;61.00;99833.44;4348318;33;19998;-83
2022/05/16 12:23:42;;;;;;;;;;;;;;;34.08;61.01;99840.00;4348119;33;20010;-83
2022/05/16 12:26:08;;;;;;;;;;;;;;;34.16;61.02;99829.03;4348168;33;20038;-83
2022/05/16 12:28:34;;;;;;;;;;;;;;;34.32;61.02;99819.75;4334801;33;20011;-83
2022/05/16 12:31:00;;;;;;;;;;;;;;;34.25;61.02;99817.00;4348171;33;19987;-83
2022/05/16 12:33:32;;;;;;;;;;;;;;;34.08;61.01;99816.53;4347711;33;20060;-83
2022/05/16 12:35:57;;;;;;;;;;;;;;;33.94;61.01;99811.25;4348015;33;20235;-83
2022/05/16 12:38:23;;;;;;;;;;;;;;;33.98;61.01;99807.09;4333671;33;27805;-83
2022/05/16 12:40:57;;;;;;;;;;;;;;;33.90;61.01;99801.88;4334439;33;19992;-83
2022/05/16 12:43:36;;;;;;;;;;;;;;;34.05;61.02;99794.44;4334195;33;19971;-83
2022/05/16 12:46:20;;;;;;;;;;;;;;;34.11;61.02;99794.50;4334392;33;19971;-82
2022/05/16 12:48:58;;;;;;;;;;;;;;;34.09;61.01;99782.25;4347958;33;20027;-82
2022/05/16 12:51:29;;;;;;;;;;;;;;;33.76;61.00;99774.75;4334224;33;19996;-82
2022/05/16 12:53:54;;;;;;;;;;;;;;;33.67;60.99;99775.09;4347905;33;19976;-83
2022/05/16 12:56:35;;;;;;;;;;;;;;;33.86;61.00;99774.44;4347822;33;20340;-83
2022/05/16 12:59:06;;;;;;;;;;;;;;;33.84;61.00;99768.41;4334171;33;19995;-83
2022/05/16 13:01:39;;;;;;;;;;;;;;;33.90;61.01;99764.91;4334115;33;19987;-83
2022/05/16 13:04:16;;;;;;;;;;;;;;;33.88;61.01;99768.81;4321863;33;19994;-83
2022/05/16 13:06:59;;;;;;;;;;;;;;;33.63;60.99;99753.06;4334184;33;19987;-83
2022/05/16 13:09:39;;;;;;;;;;;;;;;33.41;60.98;99764.97;4347550;33;20011;-83
2022/05/16 13:12:05;;;;;;;;;;;;;;;33.46;60.98;99754.41;4347676;33;20022;-82
2022/05/16 13:14:30;;;;;;;;;;;;;;;33.49;60.99;99751.31;4347569;33;19996;-82
2022/05/16 13:16:57;;;;;;;;;;;;;;;33.50;60.99;99753.81;4347597;33;20030;-82
2022/05/16 13:19:23;;;;;;;;;;;;;;;33.30;60.99;99758.19;4334133;33;20006;-83
2022/05/16 13:22:00;;;;;;;;;;;;;;;32.90;60.97;99757.03;4334046;33;20009;-83
2022/05/16 13:24:25;;;;;;;;;;;;;;;32.88;60.95;99759.06;4347511;33;20042;-83